createdAt,value
2022-12-16T00:02:26.572Z,83.33
2022-12-16T00:04:59.178Z,84.58
2022-12-16T00:07:30.848Z,84.68
2022-12-16T00:10:02.547Z,84.86
2022-12-16T00:12:34.537Z,85.12
2022-12-16T00:15:07.050Z,84.56
2022-12-16T00:17:40.644Z,83.69
2022-12-16T00:20:13.957Z,83.41
2022-12-16T00:22:45.718Z,83.33
2022-12-16T00:25:17.489Z,83.17
2022-12-16T00:27:49.230Z,84.12
2022-12-16T00:30:20.953Z,84.79
2022-12-16T00:32:52.548Z,84.58
2022-12-16T00:35:25.322Z,84.81
2022-12-16T00:37:57.027Z,84.82
2022-12-16T00:40:28.967Z,84.92
2022-12-16T00:43:00.638Z,84.79
2022-12-16T00:45:32.680Z,84.02
2022-12-16T00:48:04.540Z,83.64
2022-12-16T00:50:36.587Z,83.25
2022-12-16T00:53:08.658Z,83.32
2022-12-16T00:55:40.343Z,84.37
2022-12-16T00:58:12.043Z,84.72
2022-12-16T01:00:43.897Z,85.05
2022-12-16T01:03:21.095Z,85.25
2022-12-16T01:05:53.575Z,85.28
2022-12-16T01:08:24.428Z,84.56
2022-12-16T01:10:58.222Z,83.84
2022-12-16T01:13:30.517Z,83.94
2022-12-16T01:16:04.520Z,83.40
2022-12-16T01:18:36.428Z,83.68
2022-12-16T01:21:09.758Z,84.03
2022-12-16T01:23:41.915Z,83.96
2022-12-16T01:26:17.388Z,84.15
2022-12-16T01:28:50.194Z,84.86
2022-12-16T01:31:24.564Z,85.54
2022-12-16T01:33:56.468Z,86.01
2022-12-16T01:36:31.707Z,85.51
2022-12-16T01:39:03.365Z,85.23
2022-12-16T01:41:34.955Z,85.11
2022-12-16T01:44:18.057Z,84.61
2022-12-16T01:46:54.717Z,84.32
2022-12-16T01:49:31.885Z,84.36
2022-12-16T01:52:06.541Z,84.38
2022-12-16T01:54:43.334Z,83.48
2022-12-16T01:57:18.574Z,82.59
2022-12-16T01:59:52.856Z,81.94
2022-12-16T02:02:25.053Z,82.31
2022-12-16T02:05:27.648Z,82.43
2022-12-16T02:08:03.318Z,83.13
2022-12-16T02:10:47.136Z,84.15
2022-12-16T02:13:26.207Z,84.58
2022-12-16T02:16:07.550Z,85.20
2022-12-16T02:18:52.397Z,85.11
2022-12-16T02:21:40.212Z,84.56
2022-12-16T02:24:42.336Z,84.09
2022-12-16T02:27:55.060Z,84.40
2022-12-16T02:30:47.314Z,84.37
2022-12-16T02:33:33.947Z,83.29
2022-12-16T02:36:13.394Z,83.26
2022-12-16T02:38:56.099Z,83.63
2022-12-16T02:41:37.553Z,84.15
2022-12-16T02:44:12.315Z,84.84
2022-12-16T02:46:52.746Z,85.15
2022-12-16T02:49:40.535Z,85.45
2022-12-16T02:52:12.717Z,84.96
2022-12-16T02:54:44.988Z,83.83
2022-12-16T02:57:21.815Z,83.26
2022-12-16T03:00:00.906Z,82.53
2022-12-16T03:02:42.757Z,82.33
2022-12-16T03:05:21.433Z,82.81
2022-12-16T03:07:56.787Z,82.11
2022-12-16T03:10:33.709Z,81.84
2022-12-16T03:13:08.475Z,81.53
2022-12-16T03:15:42.497Z,81.85
2022-12-16T03:18:15.503Z,81.56
2022-12-16T03:20:51.778Z,81.37
2022-12-16T03:23:30.347Z,80.92
2022-12-16T03:26:09.165Z,80.73
2022-12-16T03:28:49.506Z,80.71
2022-12-16T03:31:31.449Z,80.73
2022-12-16T03:34:11.647Z,81.19
2022-12-16T03:36:45.284Z,80.90
2022-12-16T03:39:19.066Z,80.61
2022-12-16T03:41:53.848Z,80.96
2022-12-16T03:44:26.299Z,81.44
2022-12-16T03:46:58.234Z,81.44
2022-12-16T03:49:30.137Z,81.94
2022-12-16T03:52:02.029Z,82.33
2022-12-16T03:54:33.899Z,82.24
2022-12-16T03:57:07.321Z,82.90
2022-12-16T03:59:41.039Z,82.85
2022-12-16T04:02:12.787Z,82.57
2022-12-16T04:04:44.646Z,82.75
2022-12-16T04:07:24.672Z,82.57
2022-12-16T04:09:56.539Z,82.01
2022-12-16T04:12:46.072Z,81.91
2022-12-16T04:15:35.656Z,82.17
2022-12-16T04:18:31.787Z,81.65
2022-12-16T04:21:21.534Z,81.23
2022-12-16T04:24:14.118Z,81.79
2022-12-16T04:27:03.316Z,81.14
2022-12-16T04:29:55.587Z,81.59
2022-12-16T04:32:27.841Z,82.20
2022-12-16T04:35:13.460Z,83.35
2022-12-16T04:38:04.596Z,83.46
2022-12-16T04:40:53.601Z,83.48
2022-12-16T04:43:44.409Z,83.98
2022-12-16T04:46:33.446Z,83.76
2022-12-16T04:49:22.489Z,83.18
2022-12-16T04:52:11.475Z,83.18
2022-12-16T04:55:00.705Z,82.61
2022-12-16T04:57:50.212Z,82.83
2022-12-16T05:00:39.449Z,83.71
2022-12-16T05:03:28.729Z,84.71
2022-12-16T05:06:17.887Z,84.85
2022-12-16T05:09:06.781Z,85.49
2022-12-16T05:11:56.255Z,85.58
2022-12-16T05:14:45.513Z,85.13
2022-12-16T05:17:35.300Z,85.32
2022-12-16T05:20:25.975Z,85.26
2022-12-16T05:23:16.982Z,85.64
2022-12-16T05:26:06.148Z,85.35
2022-12-16T05:28:54.993Z,84.90
2022-12-16T05:31:44.026Z,84.01
2022-12-16T05:34:32.795Z,83.24
2022-12-16T05:37:21.881Z,83.59
2022-12-16T05:40:10.957Z,84.42
2022-12-16T05:43:03.210Z,83.96
2022-12-16T05:45:52.803Z,83.72
2022-12-16T05:48:47.488Z,84.32
2022-12-16T05:51:36.897Z,84.45
2022-12-16T05:54:26.260Z,84.06
2022-12-16T05:57:15.065Z,83.05
2022-12-16T06:00:04.088Z,82.67
2022-12-16T06:03:01.304Z,82.97
2022-12-16T06:05:50.136Z,82.88
2022-12-16T06:08:38.967Z,83.19
2022-12-16T06:11:28.266Z,83.98
2022-12-16T06:14:16.953Z,84.37
2022-12-16T06:17:06.247Z,84.00
2022-12-16T06:19:55.632Z,83.42
2022-12-16T06:22:55.875Z,83.23
2022-12-16T06:25:44.975Z,83.28
2022-12-16T06:28:34.033Z,82.69
2022-12-16T06:31:23.500Z,82.24
2022-12-16T06:34:12.732Z,81.92
2022-12-16T06:37:01.728Z,81.52
2022-12-16T06:39:53.081Z,82.09
2022-12-16T06:42:47.939Z,82.34
2022-12-16T06:45:36.662Z,82.45
2022-12-16T06:48:26.536Z,82.25
2022-12-16T06:51:15.807Z,83.10
2022-12-16T06:54:05.120Z,83.76
2022-12-16T06:56:54.393Z,83.83
2022-12-16T06:59:43.831Z,84.40
2022-12-16T07:02:29.490Z,84.84
2022-12-16T07:05:19.108Z,84.30
2022-12-16T07:08:10.660Z,83.24
2022-12-16T07:11:13.841Z,83.58
2022-12-16T07:14:05.921Z,83.74
2022-12-16T07:16:55.444Z,83.91
2022-12-16T07:19:44.999Z,84.76
2022-12-16T07:22:34.065Z,84.65
2022-12-16T07:25:23.668Z,84.93
2022-12-16T07:28:21.477Z,84.98
2022-12-16T07:31:11.135Z,85.04
2022-12-16T07:34:01.283Z,85.14
2022-12-16T07:36:51.339Z,85.43
2022-12-16T07:39:40.882Z,84.43
2022-12-16T07:42:29.993Z,83.86
2022-12-16T07:45:18.813Z,83.29
2022-12-16T07:48:08.894Z,83.90
2022-12-16T07:50:58.572Z,83.80
2022-12-16T07:53:48.123Z,83.70
2022-12-16T07:56:36.880Z,84.75
2022-12-16T07:59:22.616Z,84.59
2022-12-16T08:02:11.860Z,84.31
2022-12-16T08:05:01.030Z,84.62
2022-12-16T08:07:50.183Z,84.80
2022-12-16T08:10:39.238Z,84.52
2022-12-16T08:13:28.400Z,84.59
2022-12-16T08:16:18.112Z,84.75
2022-12-16T08:19:11.041Z,84.18
2022-12-16T08:22:00.395Z,84.66
2022-12-16T08:25:06.517Z,84.94
2022-12-16T08:27:57.826Z,85.38
2022-12-16T08:30:58.194Z,85.32
2022-12-16T08:33:47.509Z,85.33
2022-12-16T08:36:36.469Z,85.01
2022-12-16T08:39:25.689Z,84.58
2022-12-16T08:42:19.845Z,85.60
2022-12-16T08:45:09.158Z,85.37
2022-12-16T08:47:59.060Z,84.63
2022-12-16T08:50:48.353Z,84.93
2022-12-16T08:53:37.700Z,85.63
2022-12-16T08:56:27.470Z,85.22
2022-12-16T08:59:16.850Z,85.66
2022-12-16T09:02:06.305Z,85.63
2022-12-16T09:04:58.560Z,85.45
2022-12-16T09:07:47.782Z,85.05
2022-12-16T09:10:40.432Z,85.17
2022-12-16T09:13:32.524Z,85.45
2022-12-16T09:16:22.360Z,85.66
2022-12-16T09:19:11.573Z,85.75
2022-12-16T09:22:00.836Z,85.46
2022-12-16T09:24:50.235Z,85.74
2022-12-16T09:27:42.244Z,85.98
2022-12-16T09:30:32.419Z,86.05
2022-12-16T09:33:23.188Z,86.65
2022-12-16T09:36:12.037Z,86.69
2022-12-16T09:39:01.105Z,86.27
2022-12-16T09:42:00.912Z,85.97
2022-12-16T09:44:59.735Z,86.47
2022-12-16T09:47:58.487Z,86.41
2022-12-16T09:50:50.031Z,86.13
2022-12-16T09:53:40.427Z,86.40
2022-12-16T09:56:37.040Z,86.18
2022-12-16T09:59:33.206Z,85.68
2022-12-16T10:02:27.762Z,85.54
2022-12-16T10:05:17.880Z,85.80
2022-12-16T10:08:18.909Z,85.88
2022-12-16T10:11:14.449Z,86.26
2022-12-16T10:14:17.876Z,85.88
2022-12-16T10:17:15.002Z,84.81
2022-12-16T10:20:12.580Z,83.96
2022-12-16T10:23:09.564Z,83.63
2022-12-16T10:26:04.559Z,83.06
2022-12-16T10:29:04.705Z,83.76
2022-12-16T10:31:55.505Z,84.43
2022-12-16T10:34:49.110Z,84.81
2022-12-16T10:37:46.802Z,85.38
2022-12-16T10:40:40.443Z,85.12
2022-12-16T10:43:36.648Z,84.98
2022-12-16T10:46:35.217Z,84.60
2022-12-16T10:49:24.200Z,83.85
2022-12-16T10:52:13.768Z,83.26
2022-12-16T10:55:10.165Z,84.34
2022-12-16T10:58:14.397Z,84.23
2022-12-16T11:01:06.008Z,84.09
2022-12-16T11:03:56.395Z,83.99
2022-12-16T11:06:55.241Z,83.94
2022-12-16T11:09:49.848Z,83.32
2022-12-16T11:12:44.339Z,83.00
2022-12-16T11:15:46.072Z,83.55
2022-12-16T11:18:37.329Z,82.96
2022-12-16T11:21:34.094Z,83.28
2022-12-16T11:24:37.068Z,82.68
2022-12-16T11:27:34.809Z,83.49
2022-12-16T11:30:36.286Z,82.92
2022-12-16T11:33:35.733Z,82.70
2022-12-16T11:36:33.005Z,82.43
2022-12-16T11:39:22.927Z,82.01
2022-12-16T11:42:13.672Z,83.80
2022-12-16T11:45:06.366Z,84.06
2022-12-16T11:48:01.747Z,84.39
2022-12-16T11:50:53.890Z,84.86
2022-12-16T11:53:53.895Z,84.84
2022-12-16T11:56:48.289Z,84.27
2022-12-16T11:59:46.471Z,84.12
2022-12-16T12:02:41.455Z,84.17
2022-12-16T12:05:33.852Z,83.84
2022-12-16T12:08:31.870Z,82.99
2022-12-16T12:11:33.755Z,82.59
2022-12-16T12:14:33.034Z,82.39
2022-12-16T12:17:36.613Z,82.07
2022-12-16T12:20:46.527Z,82.90
2022-12-16T12:24:04.069Z,84.34
2022-12-16T12:26:56.252Z,84.02
2022-12-16T12:29:53.092Z,82.97
2022-12-16T12:32:52.246Z,82.59
2022-12-16T12:35:59.593Z,83.15
2022-12-16T12:38:57.951Z,83.99
2022-12-16T12:41:54.802Z,83.55
2022-12-16T12:44:57.631Z,84.30
2022-12-16T12:47:48.761Z,84.99
2022-12-16T12:50:46.565Z,84.63
2022-12-16T12:53:46.031Z,84.46
2022-12-16T12:56:43.733Z,84.99
2022-12-16T12:59:40.182Z,84.11
2022-12-16T13:02:36.832Z,84.28
2022-12-16T13:05:31.074Z,84.19
2022-12-16T13:09:00.516Z,84.46
2022-12-16T13:11:51.249Z,84.75
2022-12-16T13:15:21.278Z,84.47
2022-12-16T13:18:40.188Z,84.46
2022-12-16T13:22:00.168Z,84.43
2022-12-16T13:24:58.647Z,83.38
2022-12-16T13:28:03.548Z,82.95
2022-12-16T13:30:55.699Z,84.03
2022-12-16T13:33:52.385Z,83.28
2022-12-16T13:36:54.160Z,82.58
2022-12-16T13:39:46.447Z,83.21
2022-12-16T13:43:09.664Z,83.21
2022-12-16T13:46:01.762Z,83.16
2022-12-16T13:48:55.483Z,83.47
2022-12-16T13:52:24.399Z,83.70
2022-12-16T13:55:27.322Z,83.82
2022-12-16T13:58:22.447Z,83.93
2022-12-16T14:01:24.165Z,83.76
2022-12-16T14:04:14.040Z,83.50
2022-12-16T14:07:03.976Z,83.53
2022-12-16T14:10:02.105Z,84.25
2022-12-16T14:13:05.301Z,84.12
2022-12-16T14:15:59.758Z,84.08
2022-12-16T14:19:00.416Z,83.66
2022-12-16T14:21:59.676Z,83.65
2022-12-16T14:24:50.249Z,83.18
2022-12-16T14:27:40.886Z,83.24
2022-12-16T14:30:39.134Z,83.05
2022-12-16T14:33:45.703Z,83.56
2022-12-16T14:36:43.914Z,83.65
2022-12-16T14:39:45.924Z,83.11
2022-12-16T14:42:41.207Z,84.33
2022-12-16T14:45:45.273Z,85.16
2022-12-16T14:48:52.395Z,84.97
2022-12-16T14:51:47.597Z,85.67
2022-12-16T14:54:46.324Z,85.88
2022-12-16T14:57:39.963Z,85.75
2022-12-16T15:00:36.178Z,85.73
2022-12-16T15:03:33.812Z,85.81
2022-12-16T15:06:26.240Z,85.10
2022-12-16T15:09:20.614Z,85.40
2022-12-16T15:12:13.514Z,85.73
2022-12-16T15:15:05.045Z,85.72
2022-12-16T15:18:02.364Z,86.04
2022-12-16T15:20:54.416Z,86.34
2022-12-16T15:23:48.500Z,86.64
2022-12-16T15:26:39.360Z,86.24
2022-12-16T15:35:30.343Z,84.89
2022-12-16T15:38:20.158Z,84.76
2022-12-16T15:41:11.035Z,84.43
2022-12-16T15:44:01.013Z,84.10
2022-12-16T15:46:51.051Z,84.51
2022-12-16T15:49:45.229Z,85.20
2022-12-16T15:52:51.862Z,85.44
2022-12-16T15:55:48.297Z,85.93
2022-12-16T15:58:48.670Z,85.76
2022-12-16T16:01:40.629Z,86.21
2022-12-16T16:04:40.928Z,86.45
2022-12-16T16:07:35.225Z,86.70
2022-12-16T16:10:35.216Z,86.87
2022-12-16T16:13:25.597Z,87.05
2022-12-16T16:16:15.779Z,86.61
2022-12-16T16:19:05.235Z,86.42
2022-12-16T16:21:54.813Z,86.66
2022-12-16T16:24:44.145Z,87.07
2022-12-16T16:27:35.369Z,87.01
2022-12-16T16:30:29.111Z,87.28
2022-12-16T16:33:33.833Z,87.15
2022-12-16T16:36:32.726Z,87.05
2022-12-16T16:39:22.309Z,86.72
2022-12-16T16:42:11.562Z,86.56
2022-12-16T16:45:09.348Z,86.68
2022-12-16T16:47:58.972Z,86.37
2022-12-16T16:50:48.351Z,85.83
2022-12-16T16:53:40.416Z,86.86
2022-12-16T16:56:31.304Z,86.76
2022-12-16T16:59:20.924Z,86.62
2022-12-16T17:02:10.176Z,87.09
2022-12-16T17:04:59.715Z,87.29
2022-12-16T17:07:53.658Z,87.50
2022-12-16T17:10:44.184Z,87.17
2022-12-16T17:13:33.731Z,86.94
2022-12-16T17:16:23.996Z,86.52
2022-12-16T17:19:13.694Z,86.61
2022-12-16T17:22:03.195Z,86.69
2022-12-16T17:24:54.512Z,86.87
2022-12-16T17:27:45.689Z,87.34
2022-12-16T17:30:43.351Z,87.38
2022-12-16T17:33:37.389Z,87.16
2022-12-16T17:36:32.006Z,87.01
2022-12-16T17:39:22.816Z,86.79
2022-12-16T17:42:12.037Z,87.55
2022-12-16T17:45:01.691Z,88.13
2022-12-16T17:47:52.794Z,88.03
2022-12-16T17:50:42.081Z,86.87
2022-12-16T17:53:45.737Z,87.27
2022-12-16T17:56:34.700Z,87.44
2022-12-16T17:59:24.230Z,86.89
2022-12-16T18:02:13.942Z,86.27
2022-12-16T18:05:03.256Z,86.46
2022-12-16T18:07:52.821Z,87.01
2022-12-16T18:10:41.965Z,87.19
2022-12-16T18:13:31.665Z,87.95
2022-12-16T18:16:21.265Z,87.73
2022-12-16T18:19:11.394Z,87.13
2022-12-16T18:22:01.047Z,86.69
2022-12-16T18:24:50.032Z,86.12
2022-12-16T18:27:39.276Z,85.81
2022-12-16T18:30:31.580Z,86.50
2022-12-16T18:33:21.269Z,86.95
2022-12-16T18:36:10.372Z,87.28
2022-12-16T18:38:59.780Z,87.90
2022-12-16T18:41:53.236Z,88.28
2022-12-16T18:44:45.131Z,87.57
2022-12-16T18:47:34.808Z,87.19
2022-12-16T18:50:29.502Z,87.04
2022-12-16T18:53:20.967Z,86.64
2022-12-16T18:56:19.804Z,87.03
2022-12-16T18:59:09.318Z,87.35
2022-12-16T19:01:59.903Z,86.32
2022-12-16T19:04:52.613Z,86.13
2022-12-16T19:07:42.771Z,86.52
2022-12-16T19:10:32.421Z,86.73
2022-12-16T19:13:21.685Z,87.39
2022-12-16T19:16:18.073Z,87.70
2022-12-16T19:19:07.684Z,87.45
2022-12-16T19:21:57.058Z,87.97
2022-12-16T19:24:47.698Z,88.41
2022-12-16T19:27:38.034Z,88.49
2022-12-16T19:30:30.919Z,89.16
2022-12-16T19:33:21.523Z,88.81
2022-12-16T19:36:13.540Z,88.15
2022-12-16T19:39:03.338Z,88.08
2022-12-16T19:41:53.517Z,88.58
2022-12-16T19:44:44.541Z,88.97
2022-12-16T19:47:33.685Z,89.50
2022-12-16T19:50:23.628Z,89.76
2022-12-16T19:53:13.238Z,90.10
2022-12-16T19:56:02.703Z,90.15
2022-12-16T19:58:51.896Z,90.40
2022-12-16T20:01:41.559Z,90.27
2022-12-16T20:04:30.986Z,90.01
2022-12-16T20:10:29.825Z,88.43
2022-12-16T20:13:27.143Z,89.11
2022-12-16T20:16:22.698Z,88.89
2022-12-16T20:19:12.382Z,88.54
2022-12-16T20:25:11.565Z,89.76
2022-12-16T20:28:01.027Z,89.59
2022-12-16T20:30:50.604Z,89.18
2022-12-16T20:33:41.389Z,89.49
2022-12-16T20:36:31.199Z,89.56
2022-12-16T20:39:22.787Z,90.12
2022-12-16T20:42:12.239Z,89.84
2022-12-16T20:45:01.668Z,90.38
2022-12-16T20:47:51.373Z,90.95
2022-12-16T20:50:41.060Z,90.52
2022-12-16T20:53:30.315Z,89.84
2022-12-16T20:56:22.200Z,90.31
2022-12-16T20:59:11.764Z,90.15
2022-12-16T21:02:22.638Z,90.15
2022-12-16T21:05:12.547Z,89.46
2022-12-16T21:08:02.338Z,88.96
2022-12-16T21:10:52.147Z,88.89
2022-12-16T21:13:44.153Z,89.07
2022-12-16T21:14:28.715Z,88.94
2022-12-16T21:16:33.874Z,89.87
2022-12-16T21:19:26.685Z,90.35
2022-12-16T21:22:19.966Z,90.73
2022-12-16T21:25:09.344Z,90.72
2022-12-16T21:28:10.489Z,90.86
2022-12-16T21:31:00.248Z,90.24
2022-12-16T21:33:50.000Z,89.97
2022-12-16T21:36:39.184Z,89.93
2022-12-16T21:39:31.236Z,90.22
2022-12-16T21:42:20.418Z,90.74
2022-12-16T21:45:09.828Z,90.76
2022-12-16T21:47:59.548Z,90.42
2022-12-16T21:50:48.723Z,89.90
2022-12-16T21:53:35.598Z,90.04
2022-12-16T21:56:26.814Z,89.67
2022-12-16T21:59:27.702Z,89.60
2022-12-16T22:02:16.805Z,89.74
2022-12-16T22:05:05.989Z,90.08
2022-12-16T22:07:56.206Z,90.07
2022-12-16T22:10:45.788Z,90.40
2022-12-16T22:13:35.560Z,90.69
2022-12-16T22:16:25.497Z,90.23
2022-12-16T22:19:15.539Z,90.25
2022-12-16T22:22:07.105Z,89.76
2022-12-16T22:24:52.697Z,88.37
2022-12-16T22:27:42.814Z,89.15
2022-12-16T22:30:33.193Z,89.51
2022-12-16T22:33:22.626Z,90.51
2022-12-16T22:36:12.171Z,90.65
2022-12-16T22:39:01.872Z,90.41
2022-12-16T22:41:53.123Z,90.67
2022-12-16T22:44:42.426Z,90.57
2022-12-16T22:47:32.264Z,90.42
2022-12-16T22:50:22.065Z,90.78
2022-12-16T22:53:11.474Z,90.07
2022-12-16T22:56:02.191Z,88.96
2022-12-16T22:58:51.687Z,87.77
2022-12-16T23:01:41.168Z,86.98
2022-12-16T23:04:31.042Z,86.26
2022-12-16T23:07:20.957Z,87.20
2022-12-16T23:10:11.481Z,88.25
2022-12-16T23:13:01.161Z,88.67
2022-12-16T23:15:50.788Z,89.20
2022-12-16T23:18:40.441Z,88.63
2022-12-16T23:21:36.222Z,88.11
2022-12-16T23:24:26.972Z,88.28
2022-12-16T23:27:19.857Z,88.04
2022-12-16T23:30:14.531Z,88.18
2022-12-16T23:33:03.942Z,89.22
2022-12-16T23:35:53.349Z,89.26
2022-12-16T23:38:45.081Z,89.36
2022-12-16T23:41:35.151Z,90.28
2022-12-16T23:44:24.982Z,90.60
2022-12-16T23:47:14.962Z,90.56
2022-12-16T23:50:04.424Z,90.58
2022-12-16T23:52:53.954Z,91.16
2022-12-16T23:55:45.399Z,91.36
2022-12-16T23:58:34.846Z,91.11
